sensor_id;sensor_type;location;lat;lon;timestamp;pressure;altitude;pressure_sealevel;temperature;humidity
55187;BME280;55457;52.002;5.464;2023-02-19T00:01:06;101514.84;;;20.62;47.70
55187;BME280;55457;52.002;5.464;2023-02-19T00:03:32;101509.41;;;20.62;47.90
55187;BME280;55457;52.002;5.464;2023-02-19T00:06:00;101511.09;;;20.63;47.63
55187;BME280;55457;52.002;5.464;2023-02-19T00:08:25;101499.44;;;20.62;47.86
55187;BME280;55457;52.002;5.464;2023-02-19T00:10:50;101511.09;;;20.63;47.84
55187;BME280;55457;52.002;5.464;2023-02-19T00:13:17;101518.16;;;20.64;47.65
55187;BME280;55457;52.002;5.464;2023-02-19T00:15:42;101516.50;;;20.63;47.85
55187;BME280;55457;52.002;5.464;2023-02-19T00:18:08;101516.50;;;20.63;47.78
55187;BME280;55457;52.002;5.464;2023-02-19T00:20:33;101521.09;;;20.62;47.76
55187;BME280;55457;52.002;5.464;2023-02-19T00:22:58;101524.63;;;20.63;47.80
55187;BME280;55457;52.002;5.464;2023-02-19T00:25:23;101532.75;;;20.63;47.82
55187;BME280;55457;52.002;5.464;2023-02-19T00:27:49;101528.16;;;20.63;47.68
55187;BME280;55457;52.002;5.464;2023-02-19T00:30:14;101529.00;;;20.64;47.74
55187;BME280;55457;52.002;5.464;2023-02-19T00:32:39;101532.53;;;20.64;47.58
55187;BME280;55457;52.002;5.464;2023-02-19T00:35:04;101529.00;;;20.64;47.61
55187;BME280;55457;52.002;5.464;2023-02-19T00:37:30;101529.00;;;20.64;47.84
55187;BME280;55457;52.002;5.464;2023-02-19T00:39:55;101531.69;;;20.64;47.62
55187;BME280;55457;52.002;5.464;2023-02-19T00:42:20;101527.09;;;20.64;47.77
55187;BME280;55457;52.002;5.464;2023-02-19T00:44:45;101527.09;;;20.64;47.86
55187;BME280;55457;52.002;5.464;2023-02-19T00:47:10;101533.59;;;20.63;47.76
55187;BME280;55457;52.002;5.464;2023-02-19T00:49:36;101534.41;;;20.64;47.90
55187;BME280;55457;52.002;5.464;2023-02-19T00:52:01;101538.16;;;20.63;47.90
55187;BME280;55457;52.002;5.464;2023-02-19T00:54:26;101529.00;;;20.64;47.80
55187;BME280;55457;52.002;5.464;2023-02-19T00:56:51;101523.81;;;20.62;47.87
55187;BME280;55457;52.002;5.464;2023-02-19T00:59:17;101527.34;;;20.63;47.86
55187;BME280;55457;52.002;5.464;2023-02-19T01:01:42;101529.00;;;20.64;47.82
55187;BME280;55457;52.002;5.464;2023-02-19T01:04:10;101540.66;;;20.64;47.81
55187;BME280;55457;52.002;5.464;2023-02-19T01:06:36;101538.16;;;20.63;47.80
55187;BME280;55457;52.002;5.464;2023-02-19T01:09:02;101541.47;;;20.65;47.82
55187;BME280;55457;52.002;5.464;2023-02-19T01:11:27;101544.19;;;20.65;47.71
55187;BME280;55457;52.002;5.464;2023-02-19T01:13:55;101540.66;;;20.64;47.82
55187;BME280;55457;52.002;5.464;2023-02-19T01:16:21;101546.06;;;20.64;47.75
55187;BME280;55457;52.002;5.464;2023-02-19T01:18:48;101544.19;;;20.65;47.88
55187;BME280;55457;52.002;5.464;2023-02-19T01:21:15;101546.88;;;20.65;47.89
55187;BME280;55457;52.002;5.464;2023-02-19T01:23:41;101553.13;;;20.65;47.89
55187;BME280;55457;52.002;5.464;2023-02-19T01:26:07;101557.72;;;20.65;47.96
55187;BME280;55457;52.002;5.464;2023-02-19T01:28:32;101559.38;;;20.66;47.76
55187;BME280;55457;52.002;5.464;2023-02-19T01:31:01;101570.19;;;20.66;47.88
55187;BME280;55457;52.002;5.464;2023-02-19T01:33:27;101563.13;;;20.65;47.93
55187;BME280;55457;52.002;5.464;2023-02-19T01:35:52;101558.53;;;20.65;47.92
55187;BME280;55457;52.002;5.464;2023-02-19T01:38:17;101562.91;;;20.66;48.02
55187;BME280;55457;52.002;5.464;2023-02-19T01:40:43;101563.72;;;20.67;47.97
55187;BME280;55457;52.002;5.464;2023-02-19T01:43:13;101566.44;;;20.67;47.79
55187;BME280;55457;52.002;5.464;2023-02-19T01:45:41;101562.06;;;20.66;47.96
55187;BME280;55457;52.002;5.464;2023-02-19T01:48:17;101562.69;;;20.68;47.83
55187;BME280;55457;52.002;5.464;2023-02-19T01:50:48;101557.28;;;20.68;47.97
55187;BME280;55457;52.002;5.464;2023-02-19T01:53:15;101564.34;;;20.69;47.88
55187;BME280;55457;52.002;5.464;2023-02-19T01:55:43;101572.22;;;20.70;47.77
55187;BME280;55457;52.002;5.464;2023-02-19T01:58:09;101564.94;;;20.71;47.87
55187;BME280;55457;52.002;5.464;2023-02-19T02:00:35;101569.28;;;20.72;47.64
55187;BME280;55457;52.002;5.464;2023-02-19T02:03:01;101563.88;;;20.72;47.62
55187;BME280;55457;52.002;5.464;2023-02-19T02:08:01;101566.38;;;20.73;47.72
55187;BME280;55457;52.002;5.464;2023-02-19T02:10:45;101566.38;;;20.73;47.68
55187;BME280;55457;52.002;5.464;2023-02-19T02:13:10;101570.97;;;20.73;47.72
55187;BME280;55457;52.002;5.464;2023-02-19T02:15:43;101561.78;;;20.74;47.57
55187;BME280;55457;52.002;5.464;2023-02-19T02:18:18;101567.19;;;20.74;47.71
55187;BME280;55457;52.002;5.464;2023-02-19T02:24:15;101575.31;;;20.74;47.52
55187;BME280;55457;52.002;5.464;2023-02-19T02:31:32;101574.25;;;20.75;47.47
55187;BME280;55457;52.002;5.464;2023-02-19T02:34:22;101574.25;;;20.75;47.37
55187;BME280;55457;52.002;5.464;2023-02-19T02:36:46;101564.25;;;20.75;47.62
55187;BME280;55457;52.002;5.464;2023-02-19T02:39:14;101578.84;;;20.74;47.62
55187;BME280;55457;52.002;5.464;2023-02-19T02:41:42;101572.59;;;20.74;47.52
55187;BME280;55457;52.002;5.464;2023-02-19T02:44:08;101572.59;;;20.74;47.45
55187;BME280;55457;52.002;5.464;2023-02-19T02:46:34;101578.84;;;20.74;47.57
55187;BME280;55457;52.002;5.464;2023-02-19T02:49:08;101582.63;;;20.73;47.59
55187;BME280;55457;52.002;5.464;2023-02-19T02:51:40;101587.81;;;20.75;47.54
55187;BME280;55457;52.002;5.464;2023-02-19T02:54:11;101594.28;;;20.74;47.44
55187;BME280;55457;52.002;5.464;2023-02-19T02:56:57;101586.97;;;20.74;47.37
55187;BME280;55457;52.002;5.464;2023-02-19T02:59:24;101591.56;;;20.74;47.49
55187;BME280;55457;52.002;5.464;2023-02-19T03:01:58;101593.47;;;20.73;47.59
55187;BME280;55457;52.002;5.464;2023-02-19T03:07:23;101598.03;;;20.73;47.44
55187;BME280;55457;52.002;5.464;2023-02-19T03:09:49;101599.91;;;20.72;47.66
55187;BME280;55457;52.002;5.464;2023-02-19T03:12:15;101599.69;;;20.74;47.44
55187;BME280;55457;52.002;5.464;2023-02-19T03:15:02;101609.72;;;20.73;47.37
55187;BME280;55457;52.002;5.464;2023-02-19T03:17:49;101603.47;;;20.73;47.63
55187;BME280;55457;52.002;5.464;2023-02-19T03:20:35;101614.88;;;20.75;47.68
55187;BME280;55457;52.002;5.464;2023-02-19T03:23:02;101608.88;;;20.73;47.64
55187;BME280;55457;52.002;5.464;2023-02-19T03:25:30;101603.47;;;20.73;47.50
55187;BME280;55457;52.002;5.464;2023-02-19T03:28:16;101610.53;;;20.74;47.64
55187;BME280;55457;52.002;5.464;2023-02-19T03:30:46;101610.53;;;20.74;47.50
55187;BME280;55457;52.002;5.464;2023-02-19T03:33:12;101608.03;;;20.72;47.71
55187;BME280;55457;52.002;5.464;2023-02-19T03:35:41;101610.72;;;20.72;47.62
55187;BME280;55457;52.002;5.464;2023-02-19T03:40:33;101614.31;;;20.73;47.66
55187;BME280;55457;52.002;5.464;2023-02-19T03:43:17;101626.16;;;20.72;47.50
55187;BME280;55457;52.002;5.464;2023-02-19T03:48:38;101628.88;;;20.72;47.70
55187;BME280;55457;52.002;5.464;2023-02-19T03:58:40;101645.13;;;20.72;47.71
55187;BME280;55457;52.002;5.464;2023-02-19T04:01:09;101639.72;;;20.72;47.54
55187;BME280;55457;52.002;5.464;2023-02-19T04:03:40;101640.75;;;20.71;47.51
55187;BME280;55457;52.002;5.464;2023-02-19T04:06:10;101648.91;;;20.71;47.47
55187;BME280;55457;52.002;5.464;2023-02-19T04:08:37;101651.59;;;20.71;47.70
55187;BME280;55457;52.002;5.464;2023-02-19T04:11:04;101665.16;;;20.71;47.75
55187;BME280;55457;52.002;5.464;2023-02-19T04:13:31;101662.44;;;20.71;47.53
55187;BME280;55457;52.002;5.464;2023-02-19T04:16:03;101667.03;;;20.70;47.74
55187;BME280;55457;52.002;5.464;2023-02-19T04:18:31;101664.56;;;20.69;47.74
55187;BME280;55457;52.002;5.464;2023-02-19T04:20:58;101664.56;;;20.69;47.62
55187;BME280;55457;52.002;5.464;2023-02-19T04:23:24;101675.38;;;20.69;47.75
55187;BME280;55457;52.002;5.464;2023-02-19T04:25:52;101668.31;;;20.68;47.76
55187;BME280;55457;52.002;5.464;2023-02-19T04:28:19;101669.34;;;20.67;47.75
55187;BME280;55457;52.002;5.464;2023-02-19T04:30:44;101674.78;;;20.67;47.84
55187;BME280;55457;52.002;5.464;2023-02-19T04:33:09;101669.34;;;20.67;47.57
55187;BME280;55457;52.002;5.464;2023-02-19T04:35:34;101671.03;;;20.68;47.73
55187;BME280;55457;52.002;5.464;2023-02-19T04:38:00;101680.19;;;20.67;47.62
55187;BME280;55457;52.002;5.464;2023-02-19T04:40:25;101684.56;;;20.68;47.72
55187;BME280;55457;52.002;5.464;2023-02-19T04:42:50;101698.94;;;20.68;47.66
55187;BME280;55457;52.002;5.464;2023-02-19T04:45:16;101702.47;;;20.69;47.71
55187;BME280;55457;52.002;5.464;2023-02-19T04:47:41;101712.25;;;20.70;47.74
55187;BME280;55457;52.002;5.464;2023-02-19T04:50:06;101707.91;;;20.69;47.71
55187;BME280;55457;52.002;5.464;2023-02-19T04:52:32;101716.03;;;20.69;47.81
55187;BME280;55457;52.002;5.464;2023-02-19T04:54:57;101720.59;;;20.68;47.62
55187;BME280;55457;52.002;5.464;2023-02-19T04:57:22;101728.50;;;20.70;47.81
55187;BME280;55457;52.002;5.464;2023-02-19T04:59:47;101732.28;;;20.69;47.68
55187;BME280;55457;52.002;5.464;2023-02-19T05:02:13;101739.34;;;20.70;47.94
55187;BME280;55457;52.002;5.464;2023-02-19T05:04:38;101729.56;;;20.69;47.81
55187;BME280;55457;52.002;5.464;2023-02-19T05:07:03;101736.88;;;20.68;47.62
55187;BME280;55457;52.002;5.464;2023-02-19T05:09:28;101736.03;;;20.68;47.75
55187;BME280;55457;52.002;5.464;2023-02-19T05:11:53;101736.03;;;20.68;47.63
55187;BME280;55457;52.002;5.464;2023-02-19T05:14:19;101744.16;;;20.68;47.77
55187;BME280;55457;52.002;5.464;2023-02-19T05:16:44;101748.53;;;20.69;47.57
55187;BME280;55457;52.002;5.464;2023-02-19T05:19:10;101746.88;;;20.68;47.55
55187;BME280;55457;52.002;5.464;2023-02-19T05:21:35;101746.00;;;20.67;47.53
55187;BME280;55457;52.002;5.464;2023-02-19T05:24:00;101750.59;;;20.67;47.76
55187;BME280;55457;52.002;5.464;2023-02-19T05:26:25;101756.84;;;20.67;47.72
55187;BME280;55457;52.002;5.464;2023-02-19T05:28:51;101757.72;;;20.68;47.67
55187;BME280;55457;52.002;5.464;2023-02-19T05:31:17;101757.72;;;20.68;47.75
55187;BME280;55457;52.002;5.464;2023-02-19T05:33:43;101757.72;;;20.68;47.68
55187;BME280;55457;52.002;5.464;2023-02-19T05:36:11;101762.28;;;20.67;47.72
55187;BME280;55457;52.002;5.464;2023-02-19T05:38:36;101758.72;;;20.67;47.64
55187;BME280;55457;52.002;5.464;2023-02-19T05:41:12;101757.91;;;20.66;47.68
55187;BME280;55457;52.002;5.464;2023-02-19T05:43:38;101754.38;;;20.66;47.47
55187;BME280;55457;52.002;5.464;2023-02-19T05:46:04;101762.72;;;20.64;47.74
55187;BME280;55457;52.002;5.464;2023-02-19T05:48:29;101764.38;;;20.65;47.62
55187;BME280;55457;52.002;5.464;2023-02-19T05:50:59;101762.72;;;20.64;47.58
55187;BME280;55457;52.002;5.464;2023-02-19T05:53:24;101752.72;;;20.65;47.56
55187;BME280;55457;52.002;5.464;2023-02-19T05:55:50;101750.00;;;20.65;47.54
55187;BME280;55457;52.002;5.464;2023-02-19T05:58:15;101758.97;;;20.65;47.53
55187;BME280;55457;52.002;5.464;2023-02-19T06:00:40;101765.22;;;20.66;47.70
55187;BME280;55457;52.002;5.464;2023-02-19T06:03:05;101760.63;;;20.66;47.43
55187;BME280;55457;52.002;5.464;2023-02-19T06:05:30;101776.03;;;20.66;47.60
55187;BME280;55457;52.002;5.464;2023-02-19T06:07:56;101767.09;;;20.65;47.54
55187;BME280;55457;52.002;5.464;2023-02-19T06:10:21;101766.25;;;20.65;47.60
55187;BME280;55457;52.002;5.464;2023-02-19T06:12:46;101765.22;;;20.66;47.54
55187;BME280;55457;52.002;5.464;2023-02-19T06:15:11;101778.97;;;20.64;47.48
55187;BME280;55457;52.002;5.464;2023-02-19T06:17:36;101784.41;;;20.64;47.36
55187;BME280;55457;52.002;5.464;2023-02-19T06:20:02;101795.00;;;20.66;47.28
55187;BME280;55457;52.002;5.464;2023-02-19T06:22:27;101803.13;;;20.66;47.38
55187;BME280;55457;52.002;5.464;2023-02-19T06:24:52;101815.63;;;20.67;47.41
55187;BME280;55457;52.002;5.464;2023-02-19T06:27:17;101813.13;;;20.65;47.22
55187;BME280;55457;52.002;5.464;2023-02-19T06:29:43;101815.84;;;20.65;47.32
55187;BME280;55457;52.002;5.464;2023-02-19T06:32:08;101823.16;;;20.65;47.23
55187;BME280;55457;52.002;5.464;2023-02-19T06:34:33;101823.16;;;20.65;47.27
55187;BME280;55457;52.002;5.464;2023-02-19T06:36:59;101823.16;;;20.65;47.13
55187;BME280;55457;52.002;5.464;2023-02-19T06:39:24;101823.16;;;20.65;47.34
55187;BME280;55457;52.002;5.464;2023-02-19T06:41:50;101823.97;;;20.65;47.23
55187;BME280;55457;52.002;5.464;2023-02-19T06:44:15;101823.97;;;20.65;47.35
55187;BME280;55457;52.002;5.464;2023-02-19T06:46:41;101826.91;;;20.64;47.28
55187;BME280;55457;52.002;5.464;2023-02-19T06:49:06;101833.97;;;20.65;47.36
55187;BME280;55457;52.002;5.464;2023-02-19T06:51:31;101834.81;;;20.65;47.39
55187;BME280;55457;52.002;5.464;2023-02-19T06:53:57;101845.63;;;20.65;47.40
55187;BME280;55457;52.002;5.464;2023-02-19T06:58:48;101850.22;;;20.65;47.46
55187;BME280;55457;52.002;5.464;2023-02-19T07:01:14;101854.81;;;20.64;47.47
55187;BME280;55457;52.002;5.464;2023-02-19T07:03:39;101858.34;;;20.65;47.28
55187;BME280;55457;52.002;5.464;2023-02-19T07:06:04;101857.53;;;20.64;47.27
55187;BME280;55457;52.002;5.464;2023-02-19T07:08:29;101866.47;;;20.65;47.09
55187;BME280;55457;52.002;5.464;2023-02-19T07:10:55;101874.59;;;20.65;47.28
55187;BME280;55457;52.002;5.464;2023-02-19T07:13:21;101872.72;;;20.65;47.33
55187;BME280;55457;52.002;5.464;2023-02-19T07:15:46;101874.59;;;20.65;47.00
55187;BME280;55457;52.002;5.464;2023-02-19T07:18:11;101885.66;;;20.63;46.96
55187;BME280;55457;52.002;5.464;2023-02-19T07:20:36;101888.16;;;20.65;47.14
55187;BME280;55457;52.002;5.464;2023-02-19T07:23:04;101892.50;;;20.66;47.20
55187;BME280;55457;52.002;5.464;2023-02-19T07:25:29;101893.56;;;20.65;47.21
55187;BME280;55457;52.002;5.464;2023-02-19T07:27:54;101897.34;;;20.64;47.23
55187;BME280;55457;52.002;5.464;2023-02-19T07:30:19;101899.22;;;20.63;47.30
55187;BME280;55457;52.002;5.464;2023-02-19T07:32:45;101891.91;;;20.64;47.52
55187;BME280;55457;52.002;5.464;2023-02-19T07:35:10;101900.88;;;20.64;47.53
55187;BME280;55457;52.002;5.464;2023-02-19T07:37:35;101911.47;;;20.66;47.41
55187;BME280;55457;52.002;5.464;2023-02-19T07:40:00;101918.78;;;20.65;47.42
55187;BME280;55457;52.002;5.464;2023-02-19T07:42:25;101916.06;;;20.65;47.33
55187;BME280;55457;52.002;5.464;2023-02-19T07:44:51;101920.41;;;20.66;47.32
55187;BME280;55457;52.002;5.464;2023-02-19T07:47:16;101923.97;;;20.67;47.45
55187;BME280;55457;52.002;5.464;2023-02-19T07:49:41;101921.47;;;20.65;47.22
55187;BME280;55457;52.002;5.464;2023-02-19T07:52:06;101932.09;;;20.67;47.47
55187;BME280;55457;52.002;5.464;2023-02-19T07:54:31;101937.50;;;20.67;47.31
55187;BME280;55457;52.002;5.464;2023-02-19T07:56:57;101944.81;;;20.66;47.27
55187;BME280;55457;52.002;5.464;2023-02-19T07:59:23;101943.16;;;20.65;47.22
55187;BME280;55457;52.002;5.464;2023-02-19T08:01:48;101944.81;;;20.66;47.29
55187;BME280;55457;52.002;5.464;2023-02-19T08:04:32;101949.38;;;20.66;47.25
55187;BME280;55457;52.002;5.464;2023-02-19T08:06:57;101950.03;;;20.68;47.24
55187;BME280;55457;52.002;5.464;2023-02-19T08:09:22;101957.28;;;20.67;47.19
55187;BME280;55457;52.002;5.464;2023-02-19T08:11:48;101963.56;;;20.68;47.38
55187;BME280;55457;52.002;5.464;2023-02-19T08:14:32;101962.72;;;20.67;47.19
55187;BME280;55457;52.002;5.464;2023-02-19T08:16:57;101955.44;;;20.68;47.24
55187;BME280;55457;52.002;5.464;2023-02-19T08:19:22;101968.97;;;20.68;47.19
55187;BME280;55457;52.002;5.464;2023-02-19T08:21:47;101970.84;;;20.67;47.35
55187;BME280;55457;52.002;5.464;2023-02-19T08:24:14;101974.41;;;20.68;47.14
55187;BME280;55457;52.002;5.464;2023-02-19T08:26:39;101985.25;;;20.68;47.31
55187;BME280;55457;52.002;5.464;2023-02-19T08:29:04;101986.06;;;20.68;47.30
55187;BME280;55457;52.002;5.464;2023-02-19T08:31:30;101989.59;;;20.69;47.08
55187;BME280;55457;52.002;5.464;2023-02-19T08:33:56;101995.03;;;20.69;47.24
55187;BME280;55457;52.002;5.464;2023-02-19T08:36:21;101997.72;;;20.69;47.29
55187;BME280;55457;52.002;5.464;2023-02-19T08:38:46;101990.66;;;20.68;47.31
55187;BME280;55457;52.002;5.464;2023-02-19T08:41:12;101993.13;;;20.69;47.30
55187;BME280;55457;52.002;5.464;2023-02-19T08:43:38;102005.84;;;20.69;47.06
55187;BME280;55457;52.002;5.464;2023-02-19T08:46:03;102005.84;;;20.69;47.09
55187;BME280;55457;52.002;5.464;2023-02-19T08:48:30;102004.19;;;20.68;47.03
55187;BME280;55457;52.002;5.464;2023-02-19T08:50:56;102013.16;;;20.68;47.30
55187;BME280;55457;52.002;5.464;2023-02-19T08:53:22;102019.41;;;20.69;47.20
55187;BME280;55457;52.002;5.464;2023-02-19T08:55:47;102011.28;;;20.69;47.15
55187;BME280;55457;52.002;5.464;2023-02-19T08:58:12;102012.09;;;20.69;47.23
55187;BME280;55457;52.002;5.464;2023-02-19T09:00:37;102014.81;;;20.69;47.25
55187;BME280;55457;52.002;5.464;2023-02-19T09:03:03;102015.63;;;20.70;47.19
55187;BME280;55457;52.002;5.464;2023-02-19T09:05:28;102021.06;;;20.70;47.08
55187;BME280;55457;52.002;5.464;2023-02-19T09:07:53;102005.63;;;20.70;46.94
55187;BME280;55457;52.002;5.464;2023-02-19T09:10:18;102016.69;;;20.69;47.09
55187;BME280;55457;52.002;5.464;2023-02-19T09:12:43;102020.00;;;20.71;47.12
55187;BME280;55457;52.002;5.464;2023-02-19T09:15:09;102013.97;;;20.69;47.17
55187;BME280;55457;52.002;5.464;2023-02-19T09:17:34;102007.50;;;20.70;47.18
55187;BME280;55457;52.002;5.464;2023-02-19T09:19:59;102027.28;;;20.70;47.07
55187;BME280;55457;52.002;5.464;2023-02-19T09:22:24;102038.97;;;20.71;47.04
55187;BME280;55457;52.002;5.464;2023-02-19T09:24:50;102028.13;;;20.71;47.17
55187;BME280;55457;52.002;5.464;2023-02-19T09:27:16;102025.41;;;20.71;46.98
55187;BME280;55457;52.002;5.464;2023-02-19T09:29:41;102027.28;;;20.70;47.16
55187;BME280;55457;52.002;5.464;2023-02-19T09:32:06;102036.25;;;20.71;47.15
55187;BME280;55457;52.002;5.464;2023-02-19T09:34:31;102055.22;;;20.71;47.16
55187;BME280;55457;52.002;5.464;2023-02-19T09:36:57;102061.47;;;20.71;47.07
55187;BME280;55457;52.002;5.464;2023-02-19T09:39:22;102075.84;;;20.72;46.93
55187;BME280;55457;52.002;5.464;2023-02-19T09:41:48;102073.13;;;20.72;46.91
55187;BME280;55457;52.002;5.464;2023-02-19T09:44:18;102080.22;;;20.73;46.97
55187;BME280;55457;52.002;5.464;2023-02-19T09:46:46;102082.94;;;20.73;46.87
55187;BME280;55457;52.002;5.464;2023-02-19T09:51:36;102100.63;;;20.75;47.02
55187;BME280;55457;52.002;5.464;2023-02-19T09:54:03;102097.91;;;20.75;47.02
55187;BME280;55457;52.002;5.464;2023-02-19T09:56:32;102104.16;;;20.76;47.21
55187;BME280;55457;52.002;5.464;2023-02-19T09:58:58;102112.28;;;20.76;46.94
55187;BME280;55457;52.002;5.464;2023-02-19T10:01:24;102108.53;;;20.77;46.84
55187;BME280;55457;52.002;5.464;2023-02-19T10:03:50;102109.56;;;20.76;46.98
55187;BME280;55457;52.002;5.464;2023-02-19T10:06:20;102119.34;;;20.77;46.79
55187;BME280;55457;52.002;5.464;2023-02-19T10:08:48;102121.47;;;20.75;46.96
55187;BME280;55457;52.002;5.464;2023-02-19T10:11:15;102129.59;;;20.75;46.85
55187;BME280;55457;52.002;5.464;2023-02-19T10:13:42;102138.56;;;20.75;46.95
55187;BME280;55457;52.002;5.464;2023-02-19T10:16:10;102140.66;;;20.73;46.76
55187;BME280;55457;52.002;5.464;2023-02-19T10:18:40;102140.44;;;20.75;47.02
55187;BME280;55457;52.002;5.464;2023-02-19T10:21:07;102146.91;;;20.74;46.85
55187;BME280;55457;52.002;5.464;2023-02-19T10:23:34;102145.25;;;20.73;46.88
55187;BME280;55457;52.002;5.464;2023-02-19T10:25:59;102151.50;;;20.73;46.87
55187;BME280;55457;52.002;5.464;2023-02-19T10:28:27;102152.50;;;20.72;46.82
55187;BME280;55457;52.002;5.464;2023-02-19T10:30:54;102158.16;;;20.71;47.10
55187;BME280;55457;52.002;5.464;2023-02-19T10:33:20;102167.34;;;20.70;47.20
55187;BME280;55457;52.002;5.464;2023-02-19T10:35:53;102176.50;;;20.69;47.08
55187;BME280;55457;52.002;5.464;2023-02-19T10:38:19;102172.97;;;20.68;47.28
55187;BME280;55457;52.002;5.464;2023-02-19T10:40:47;102181.94;;;20.69;47.26
55187;BME280;55457;52.002;5.464;2023-02-19T10:43:23;102185.25;;;20.71;47.28
55187;BME280;55457;52.002;5.464;2023-02-19T10:45:55;102186.06;;;20.71;47.21
55187;BME280;55457;52.002;5.464;2023-02-19T10:48:28;102180.66;;;20.71;47.33
55187;BME280;55457;52.002;5.464;2023-02-19T10:50:54;102177.94;;;20.71;47.36
55187;BME280;55457;52.002;5.464;2023-02-19T10:53:23;102174.41;;;20.71;47.53
55187;BME280;55457;52.002;5.464;2023-02-19T10:55:48;102180.03;;;20.69;47.43
55187;BME280;55457;52.002;5.464;2023-02-19T10:58:29;102195.25;;;20.70;47.44
55187;BME280;55457;52.002;5.464;2023-02-19T11:03:43;102186.28;;;20.70;47.75
55187;BME280;55457;52.002;5.464;2023-02-19T11:06:09;102180.88;;;20.70;47.54
55187;BME280;55457;52.002;5.464;2023-02-19T11:08:44;102176.50;;;20.69;47.76
55187;BME280;55457;52.002;5.464;2023-02-19T11:11:09;102166.72;;;20.68;47.77
55187;BME280;55457;52.002;5.464;2023-02-19T11:13:45;102162.97;;;20.69;47.72
55187;BME280;55457;52.002;5.464;2023-02-19T11:16:11;102167.56;;;20.68;47.62
55187;BME280;55457;52.002;5.464;2023-02-19T11:18:36;102172.16;;;20.68;47.75
55187;BME280;55457;52.002;5.464;2023-02-19T11:21:03;102186.28;;;20.70;47.72
55187;BME280;55457;52.002;5.464;2023-02-19T11:23:30;102179.00;;;20.70;47.67
55187;BME280;55457;52.002;5.464;2023-02-19T11:25:57;102178.16;;;20.70;47.72
55187;BME280;55457;52.002;5.464;2023-02-19T11:28:27;102184.41;;;20.70;47.60
55187;BME280;55457;52.002;5.464;2023-02-19T11:30:54;102183.59;;;20.70;47.75
55187;BME280;55457;52.002;5.464;2023-02-19T11:33:21;102190.66;;;20.71;47.80
55187;BME280;55457;52.002;5.464;2023-02-19T11:35:48;102192.31;;;20.72;47.87
55187;BME280;55457;52.002;5.464;2023-02-19T11:38:15;102184.00;;;20.73;47.76
55187;BME280;55457;52.002;5.464;2023-02-19T11:43:35;102189.41;;;20.73;47.76
55187;BME280;55457;52.002;5.464;2023-02-19T11:48:38;102190.66;;;20.71;47.72
55187;BME280;55457;52.002;5.464;2023-02-19T11:51:13;102194.41;;;20.70;47.71
55187;BME280;55457;52.002;5.464;2023-02-19T11:53:46;102192.75;;;20.69;47.87
55187;BME280;55457;52.002;5.464;2023-02-19T11:56:18;102198.19;;;20.69;47.78
55187;BME280;55457;52.002;5.464;2023-02-19T12:01:24;102192.75;;;20.69;47.67
55187;BME280;55457;52.002;5.464;2023-02-19T12:06:22;102190.25;;;20.67;47.63
55187;BME280;55457;52.002;5.464;2023-02-19T12:08:56;102189.41;;;20.67;47.56
55187;BME280;55457;52.002;5.464;2023-02-19T12:35:40;102209.00;;;20.69;47.90
55187;BME280;55457;52.002;5.464;2023-02-19T12:38:42;102202.56;;;20.70;48.08
55187;BME280;55457;52.002;5.464;2023-02-19T12:43:49;102199.84;;;20.70;47.94
55187;BME280;55457;52.002;5.464;2023-02-19T12:46:17;102194.41;;;20.70;47.82
55187;BME280;55457;52.002;5.464;2023-02-19T12:48:50;102208.56;;;20.72;47.80
55187;BME280;55457;52.002;5.464;2023-02-19T12:56:43;102229.00;;;20.74;47.85
55187;BME280;55457;52.002;5.464;2023-02-19T12:59:14;102236.91;;;20.76;47.76
55187;BME280;55457;52.002;5.464;2023-02-19T13:01:51;102243.16;;;20.76;47.78
55187;BME280;55457;52.002;5.464;2023-02-19T13:04:23;102251.09;;;20.78;47.83
55187;BME280;55457;52.002;5.464;2023-02-19T13:07:05;102251.72;;;20.80;47.79
55187;BME280;55457;52.002;5.464;2023-02-19T13:09:34;102240.88;;;20.80;47.64
55187;BME280;55457;52.002;5.464;2023-02-19T13:12:02;102249.59;;;20.82;47.43
55187;BME280;55457;52.002;5.464;2023-02-19T13:16:59;102263.16;;;20.82;47.40
55187;BME280;55457;52.002;5.464;2023-02-19T13:19:25;102272.97;;;20.83;47.30
55187;BME280;55457;52.002;5.464;2023-02-19T13:21:55;102277.34;;;20.84;47.29
55187;BME280;55457;52.002;5.464;2023-02-19T13:24:41;102275.69;;;20.83;47.35
55187;BME280;55457;52.002;5.464;2023-02-19T13:34:46;102281.28;;;20.81;47.32
55187;BME280;55457;52.002;5.464;2023-02-19T13:37:15;102279.41;;;20.82;47.51
55187;BME280;55457;52.002;5.464;2023-02-19T13:39:44;102287.53;;;20.82;47.59
55187;BME280;55457;52.002;5.464;2023-02-19T13:42:18;102294.66;;;20.83;47.53
55187;BME280;55457;52.002;5.464;2023-02-19T13:44:47;102304.44;;;20.84;47.36
55187;BME280;55457;52.002;5.464;2023-02-19T13:50:00;102310.91;;;20.83;47.27
55187;BME280;55457;52.002;5.464;2023-02-19T13:57:37;102321.94;;;20.81;47.30
55187;BME280;55457;52.002;5.464;2023-02-19T14:00:21;102317.34;;;20.82;47.43
55187;BME280;55457;52.002;5.464;2023-02-19T14:02:48;102336.31;;;20.82;47.33
55187;BME280;55457;52.002;5.464;2023-02-19T14:05:13;102329.00;;;20.82;47.39
55187;BME280;55457;52.002;5.464;2023-02-19T14:07:58;102327.34;;;20.81;47.31
55187;BME280;55457;52.002;5.464;2023-02-19T14:13:07;102328.19;;;20.82;47.56
55187;BME280;55457;52.002;5.464;2023-02-19T14:15:36;102337.34;;;20.81;47.39
55187;BME280;55457;52.002;5.464;2023-02-19T14:18:38;102340.91;;;20.81;47.68
55187;BME280;55457;52.002;5.464;2023-02-19T14:20:48;102338.00;;;20.83;47.58
55187;BME280;55457;52.002;5.464;2023-02-19T14:23:21;102333.59;;;20.82;47.39
55187;BME280;55457;52.002;5.464;2023-02-19T14:25:48;102331.53;;;20.84;47.58
55187;BME280;55457;52.002;5.464;2023-02-19T14:30:45;102316.50;;;20.81;47.60
55187;BME280;55457;52.002;5.464;2023-02-19T14:33:14;102309.22;;;20.82;47.52